createdAt,value
2023-03-12T00:02:22.203Z,2.77
2023-03-12T00:04:49.340Z,2.63
2023-03-12T00:07:16.545Z,2.40
2023-03-12T00:09:43.682Z,3.83
2023-03-12T00:12:10.749Z,2.73
2023-03-12T00:14:37.850Z,2.47
2023-03-12T00:17:05.083Z,3.00
2023-03-12T00:19:32.188Z,2.93
2023-03-12T00:21:59.231Z,2.80
2023-03-12T00:24:26.305Z,2.80
2023-03-12T00:26:53.329Z,2.70
2023-03-12T00:29:20.450Z,3.20
2023-03-12T00:31:47.790Z,2.50
2023-03-12T00:34:14.956Z,3.00
2023-03-12T00:36:42.103Z,2.73
2023-03-12T00:39:09.184Z,2.47
2023-03-12T00:41:35.873Z,2.60
2023-03-12T00:44:02.984Z,2.87
2023-03-12T00:46:30.114Z,2.50
2023-03-12T00:48:57.178Z,2.33
2023-03-12T00:51:24.305Z,2.23
2023-03-12T00:53:50.972Z,2.33
2023-03-12T00:56:18.123Z,2.63
2023-03-12T00:58:46.198Z,2.37
2023-03-12T01:01:13.397Z,2.47
2023-03-12T01:03:40.530Z,2.20
2023-03-12T01:06:07.860Z,2.77
2023-03-12T01:08:34.951Z,2.30
2023-03-12T01:11:02.004Z,2.70
2023-03-12T01:13:29.131Z,2.60
2023-03-12T01:15:56.228Z,2.57
2023-03-12T01:18:23.336Z,2.50
2023-03-12T01:20:50.690Z,2.03
2023-03-12T01:23:17.866Z,2.33
2023-03-12T01:25:44.575Z,2.80
2023-03-12T01:28:11.611Z,2.07
2023-03-12T01:30:38.738Z,2.57
2023-03-12T01:33:05.754Z,2.10
2023-03-12T01:35:36.962Z,2.40
2023-03-12T01:38:03.844Z,2.33
2023-03-12T01:40:33.531Z,2.03
2023-03-12T01:43:24.870Z,2.13
2023-03-12T01:46:16.085Z,2.63
2023-03-12T01:48:47.430Z,1.90
2023-03-12T01:51:15.985Z,2.20
2023-03-12T01:53:47.095Z,2.67
2023-03-12T01:56:16.341Z,2.30
2023-03-12T01:58:47.837Z,2.13
2023-03-12T02:01:17.134Z,2.20
2023-03-12T02:03:47.676Z,2.60
2023-03-12T02:06:15.869Z,2.30
2023-03-12T02:08:45.608Z,2.53
2023-03-12T02:11:13.379Z,2.20
2023-03-12T02:13:41.144Z,2.27
2023-03-12T02:16:08.745Z,2.37
2023-03-12T02:18:36.027Z,2.57
2023-03-12T02:21:19.945Z,2.10
2023-03-12T02:24:08.488Z,2.30
2023-03-12T02:26:38.067Z,2.07
2023-03-12T02:29:06.224Z,2.43
2023-03-12T02:31:44.854Z,2.03
2023-03-12T02:34:13.145Z,1.77
2023-03-12T02:36:39.776Z,2.17
2023-03-12T02:39:06.410Z,2.10
2023-03-12T02:41:38.234Z,2.20
2023-03-12T02:44:05.313Z,2.27
2023-03-12T02:46:47.989Z,2.20
2023-03-12T02:49:16.094Z,2.23
2023-03-12T02:51:44.819Z,2.13
2023-03-12T02:54:13.035Z,1.87
2023-03-12T02:56:40.516Z,2.33
2023-03-12T02:59:09.168Z,2.17
2023-03-12T03:01:39.844Z,2.23
2023-03-12T03:04:08.294Z,2.70
2023-03-12T03:06:37.336Z,1.67
2023-03-12T03:09:05.232Z,2.33
2023-03-12T03:11:32.324Z,2.57
2023-03-12T03:14:03.893Z,1.90
2023-03-12T03:16:30.951Z,2.37
2023-03-12T03:18:58.870Z,2.60
2023-03-12T03:21:26.105Z,2.30
2023-03-12T03:23:53.222Z,3.30
2023-03-12T03:26:22.722Z,2.33
2023-03-12T03:28:49.921Z,2.53
2023-03-12T03:31:17.551Z,3.23
2023-03-12T03:33:45.220Z,2.60
2023-03-12T03:36:16.529Z,2.93
2023-03-12T03:38:52.146Z,2.43
2023-03-12T03:41:20.810Z,2.63
2023-03-12T03:43:47.942Z,2.60
2023-03-12T03:46:17.803Z,2.70
2023-03-12T03:48:50.867Z,2.50
2023-03-12T03:51:18.017Z,2.70
2023-03-12T03:53:48.227Z,2.77
2023-03-12T03:56:16.603Z,2.40
2023-03-12T03:58:47.753Z,3.10
2023-03-12T04:01:16.068Z,2.67
2023-03-12T04:03:44.685Z,2.90
2023-03-12T04:06:11.984Z,3.10
2023-03-12T04:08:40.161Z,2.60
2023-03-12T04:11:14.727Z,2.50
2023-03-12T04:13:42.450Z,2.33
2023-03-12T04:16:10.119Z,2.67
2023-03-12T04:18:37.488Z,2.50
2023-03-12T04:21:07.335Z,3.20
2023-03-12T04:23:35.471Z,2.47
2023-03-12T04:26:03.046Z,2.73
2023-03-12T04:28:30.335Z,2.73
2023-03-12T04:30:59.794Z,2.80
2023-03-12T04:33:29.236Z,2.57
2023-03-12T04:35:57.075Z,2.60
2023-03-12T04:38:25.339Z,3.00
2023-03-12T04:41:00.117Z,3.10
2023-03-12T04:43:27.733Z,2.70
2023-03-12T04:45:55.064Z,2.67
2023-03-12T04:48:22.198Z,2.93
2023-03-12T04:50:51.381Z,2.60
2023-03-12T04:53:19.044Z,3.13
2023-03-12T04:55:47.340Z,2.90
2023-03-12T04:58:15.932Z,2.70
2023-03-12T05:00:43.081Z,2.47
2023-03-12T05:03:10.637Z,3.17
2023-03-12T05:05:37.791Z,3.30
2023-03-12T05:08:05.497Z,2.63
2023-03-12T05:10:34.403Z,3.57
2023-03-12T05:13:01.506Z,2.33
2023-03-12T05:15:28.650Z,2.90
2023-03-12T05:17:55.761Z,2.80
2023-03-12T05:20:23.040Z,2.30
2023-03-12T05:22:49.645Z,2.40
2023-03-12T05:25:17.140Z,2.40
2023-03-12T05:27:44.325Z,2.50
2023-03-12T05:30:12.943Z,2.40
2023-03-12T05:32:40.117Z,2.43
2023-03-12T05:35:07.174Z,2.33
2023-03-12T05:37:34.822Z,2.37
2023-03-12T05:40:01.959Z,2.30
2023-03-12T05:42:29.683Z,2.20
2023-03-12T05:44:57.447Z,1.80
2023-03-12T05:47:24.539Z,3.23
2023-03-12T05:49:52.123Z,2.47
2023-03-12T05:52:19.259Z,2.17
2023-03-12T05:54:46.316Z,2.20
2023-03-12T05:57:13.524Z,2.37
2023-03-12T05:59:41.424Z,2.50
2023-03-12T06:02:09.442Z,3.77
2023-03-12T06:04:36.543Z,2.20
2023-03-12T06:07:03.646Z,2.67
2023-03-12T06:09:31.655Z,3.00
2023-03-12T06:11:58.698Z,3.20
2023-03-12T06:14:25.786Z,2.80
2023-03-12T06:16:52.670Z,2.90
2023-03-12T06:19:19.773Z,2.13
2023-03-12T06:21:48.659Z,2.43
2023-03-12T06:24:15.727Z,2.10
2023-03-12T06:26:49.598Z,2.40
2023-03-12T06:29:16.629Z,1.93
2023-03-12T06:31:44.082Z,1.77
2023-03-12T06:34:11.462Z,2.13
2023-03-12T06:36:38.171Z,2.17
2023-03-12T06:39:09.537Z,1.97
2023-03-12T06:41:37.048Z,1.80
2023-03-12T06:44:05.950Z,2.27
2023-03-12T06:46:33.036Z,1.70
2023-03-12T06:49:00.105Z,2.33
2023-03-12T06:51:26.728Z,1.80
2023-03-12T06:53:53.811Z,1.83
2023-03-12T06:56:20.967Z,2.27
2023-03-12T06:58:48.678Z,1.77
2023-03-12T07:01:15.785Z,1.90
2023-03-12T07:03:43.115Z,1.60
2023-03-12T07:06:18.512Z,2.57
2023-03-12T07:08:45.866Z,2.13
2023-03-12T07:11:13.544Z,2.30
2023-03-12T07:13:40.997Z,1.83
2023-03-12T07:16:08.164Z,1.50
2023-03-12T07:18:35.264Z,1.23
2023-03-12T07:21:02.372Z,1.97
2023-03-12T07:23:29.621Z,1.60
2023-03-12T07:25:56.729Z,1.57
2023-03-12T07:28:23.882Z,1.60
2023-03-12T07:30:50.905Z,1.50
2023-03-12T07:33:19.660Z,1.23
2023-03-12T07:35:50.212Z,1.70
2023-03-12T07:38:18.856Z,1.97
2023-03-12T07:40:45.983Z,1.40
2023-03-12T07:43:13.041Z,1.50
2023-03-12T07:45:41.479Z,1.60
2023-03-12T07:48:08.818Z,1.80
2023-03-12T07:50:36.651Z,1.23
2023-03-12T07:53:04.582Z,1.73
2023-03-12T07:55:32.735Z,1.43
2023-03-12T07:57:59.842Z,1.60
2023-03-12T08:00:28.121Z,1.80
2023-03-12T08:02:55.399Z,2.20
2023-03-12T08:05:24.750Z,1.63
2023-03-12T08:07:52.621Z,1.40
2023-03-12T08:10:21.026Z,1.70
2023-03-12T08:12:48.193Z,1.63
2023-03-12T08:15:15.730Z,1.33
2023-03-12T08:17:42.512Z,1.57
2023-03-12T08:20:10.169Z,1.30
2023-03-12T08:22:37.532Z,1.50
2023-03-12T08:25:04.878Z,1.50
2023-03-12T08:27:31.887Z,1.60
2023-03-12T08:29:58.961Z,1.93
2023-03-12T08:32:26.110Z,1.40
2023-03-12T08:34:53.206Z,1.33
2023-03-12T08:37:20.301Z,1.27
2023-03-12T08:39:47.352Z,1.40
2023-03-12T08:42:13.936Z,1.73
2023-03-12T08:44:41.056Z,1.70
2023-03-12T08:47:08.097Z,1.60
2023-03-12T08:49:35.189Z,1.70
2023-03-12T08:52:02.016Z,1.40
2023-03-12T08:54:29.032Z,1.60
2023-03-12T08:56:56.046Z,2.60
2023-03-12T08:59:23.377Z,2.07
2023-03-12T09:01:50.438Z,1.63
2023-03-12T09:04:17.682Z,1.10
2023-03-12T09:06:44.815Z,1.77
2023-03-12T09:09:12.647Z,1.90
2023-03-12T09:11:40.779Z,1.87
2023-03-12T09:15:01.137Z,2.07
2023-03-12T09:16:55.248Z,2.27
2023-03-12T09:19:22.370Z,1.90
2023-03-12T09:21:48.957Z,1.50
2023-03-12T09:24:16.025Z,1.90
2023-03-12T09:26:43.040Z,1.83
2023-03-12T09:29:10.157Z,1.57
2023-03-12T09:31:37.026Z,2.37
2023-03-12T09:34:04.966Z,1.73
2023-03-12T09:36:32.315Z,2.60
2023-03-12T09:38:59.138Z,2.07
2023-03-12T09:41:29.653Z,1.90
2023-03-12T09:44:01.820Z,1.93
2023-03-12T09:46:38.782Z,1.90
2023-03-12T09:49:38.407Z,2.67
2023-03-12T09:52:20.963Z,2.10
2023-03-12T09:54:57.189Z,3.07
2023-03-12T09:57:25.855Z,2.73
2023-03-12T09:59:53.089Z,2.60
2023-03-12T10:02:42.804Z,2.60
2023-03-12T10:05:24.294Z,2.90
2023-03-12T10:07:58.298Z,2.90
2023-03-12T10:10:49.558Z,3.00
2023-03-12T10:13:43.772Z,3.30
2023-03-12T10:16:10.808Z,2.87
2023-03-12T10:18:44.133Z,3.10
2023-03-12T10:21:56.018Z,2.80
2023-03-12T10:24:48.105Z,3.40
2023-03-12T10:27:16.954Z,4.30
2023-03-12T10:29:50.247Z,3.30
2023-03-12T10:32:28.458Z,3.67
2023-03-12T10:35:03.287Z,3.70
2023-03-12T10:37:49.971Z,3.10
2023-03-12T10:40:23.271Z,3.90
2023-03-12T10:42:50.536Z,3.30
2023-03-12T10:45:17.680Z,3.37
2023-03-12T10:47:51.045Z,3.43
2023-03-12T10:50:20.085Z,3.30
2023-03-12T10:52:49.511Z,3.80
2023-03-12T10:55:16.512Z,4.27
2023-03-12T10:57:43.157Z,4.07
2023-03-12T11:00:18.154Z,3.80
2023-03-12T11:02:48.349Z,3.90
2023-03-12T11:05:43.747Z,4.27
2023-03-12T11:08:20.957Z,3.70
2023-03-12T11:10:48.322Z,4.33
2023-03-12T11:13:25.778Z,4.40
2023-03-12T11:15:53.091Z,4.60
2023-03-12T11:18:20.785Z,4.60
2023-03-12T11:20:50.218Z,5.10
2023-03-12T11:23:30.196Z,4.97
2023-03-12T11:26:00.708Z,4.80
2023-03-12T11:28:40.507Z,4.37
2023-03-12T11:31:33.227Z,4.63
2023-03-12T11:34:06.391Z,4.70
2023-03-12T11:36:46.598Z,5.53
2023-03-12T11:39:25.309Z,4.50
2023-03-12T11:42:11.173Z,5.23
2023-03-12T11:45:03.970Z,5.90
2023-03-12T11:47:33.730Z,4.30
2023-03-12T11:50:21.186Z,4.83
2023-03-12T11:52:48.265Z,4.47
2023-03-12T11:55:19.504Z,5.57
2023-03-12T11:57:54.727Z,4.87
2023-03-12T12:00:32.509Z,5.03
2023-03-12T12:03:31.238Z,5.40
2023-03-12T12:06:06.857Z,5.27
2023-03-12T12:09:18.332Z,6.60
2023-03-12T12:12:09.038Z,7.30
2023-03-12T12:15:14.214Z,5.23
2023-03-12T12:17:56.575Z,5.97
2023-03-12T12:20:23.686Z,5.87
2023-03-12T12:23:33.883Z,6.67
2023-03-12T12:26:01.311Z,5.50
2023-03-12T12:28:44.886Z,6.77
2023-03-12T12:31:49.306Z,5.73
2023-03-12T12:34:36.875Z,6.23
2023-03-12T12:37:42.243Z,7.93
2023-03-12T12:40:37.329Z,7.90
2023-03-12T12:43:27.935Z,8.13
2023-03-12T12:45:59.267Z,6.57
2023-03-12T12:48:53.328Z,7.57
2023-03-12T12:51:22.907Z,6.40
2023-03-12T12:54:04.240Z,7.10
2023-03-12T12:56:42.280Z,5.90
2023-03-12T12:59:27.305Z,6.57
2023-03-12T13:01:55.752Z,5.30
2023-03-12T13:04:30.484Z,5.30
2023-03-12T13:07:12.076Z,5.47
2023-03-12T13:09:52.833Z,5.50
2023-03-12T13:12:25.584Z,5.40
2023-03-12T13:14:54.658Z,6.00
2023-03-12T13:17:35.697Z,5.43
2023-03-12T13:20:17.596Z,4.87
2023-03-12T13:23:09.389Z,5.37
2023-03-12T13:25:54.360Z,7.83
2023-03-12T13:28:30.070Z,5.60
2023-03-12T13:30:57.903Z,5.53
2023-03-12T13:33:41.414Z,4.87
2023-03-12T13:36:17.032Z,5.83
2023-03-12T13:39:17.588Z,4.53
2023-03-12T13:41:55.024Z,5.57
2023-03-12T13:44:27.518Z,4.67
2023-03-12T13:46:58.288Z,5.23
2023-03-12T13:49:26.094Z,5.53
2023-03-12T13:51:59.850Z,5.50
2023-03-12T13:54:33.594Z,6.43
2023-03-12T13:57:10.157Z,6.73
2023-03-12T13:59:43.821Z,5.87
2023-03-12T14:02:23.579Z,6.57
2023-03-12T14:04:50.648Z,7.20
2023-03-12T14:07:38.160Z,6.30
2023-03-12T14:10:19.457Z,6.93
2023-03-12T14:13:13.416Z,5.97
2023-03-12T14:15:56.246Z,6.90
2023-03-12T14:18:26.795Z,6.37
2023-03-12T14:20:58.223Z,5.80
2023-03-12T14:23:29.206Z,7.27
2023-03-12T14:26:03.982Z,6.23
2023-03-12T14:28:37.913Z,6.17
2023-03-12T14:31:17.066Z,6.60
2023-03-12T14:34:12.884Z,11.77
2023-03-12T14:36:46.487Z,7.17
2023-03-12T14:39:36.939Z,6.93
2023-03-12T14:42:08.232Z,6.20
2023-03-12T14:44:37.150Z,5.90
2023-03-12T14:47:12.738Z,7.33
2023-03-12T14:49:45.237Z,6.83
2023-03-12T14:52:23.948Z,5.93
2023-03-12T14:55:01.113Z,5.77
2023-03-12T14:57:28.413Z,5.80
2023-03-12T15:00:00.144Z,5.27
2023-03-12T15:02:30.028Z,6.23
2023-03-12T15:05:00.015Z,6.67
2023-03-12T15:07:34.316Z,6.63
2023-03-12T15:10:06.048Z,6.80
2023-03-12T15:12:36.683Z,6.10
2023-03-12T15:15:10.921Z,6.77
2023-03-12T15:17:37.895Z,7.00
2023-03-12T15:20:09.523Z,8.00
2023-03-12T15:22:37.182Z,7.87
2023-03-12T15:25:26.009Z,7.37
2023-03-12T15:28:11.406Z,7.50
2023-03-12T15:30:39.433Z,8.23
2023-03-12T15:33:06.511Z,7.87
2023-03-12T15:35:33.457Z,7.70
2023-03-12T15:38:01.201Z,8.60
2023-03-12T15:40:29.946Z,8.23
2023-03-12T15:43:01.717Z,8.30
2023-03-12T15:45:37.866Z,9.97
2023-03-12T15:48:15.706Z,9.67
2023-03-12T15:50:44.611Z,8.47
2023-03-12T15:53:14.186Z,8.97
2023-03-12T15:55:43.873Z,8.80
2023-03-12T15:58:35.608Z,7.77
2023-03-12T16:01:12.599Z,8.80
2023-03-12T16:03:40.764Z,9.57
2023-03-12T16:06:17.045Z,8.53
2023-03-12T16:08:55.437Z,8.60
2023-03-12T16:11:30.663Z,10.20
2023-03-12T16:14:20.332Z,9.67
2023-03-12T16:16:47.934Z,8.87
2023-03-12T16:19:17.212Z,8.50
2023-03-12T16:21:44.268Z,9.47
2023-03-12T16:24:11.536Z,9.73
2023-03-12T16:26:58.698Z,8.13
2023-03-12T16:29:45.703Z,8.80
2023-03-12T16:32:15.015Z,8.63
2023-03-12T16:34:42.850Z,9.90
2023-03-12T16:37:13.049Z,9.13
2023-03-12T16:39:40.438Z,8.07
2023-03-12T16:42:15.325Z,8.57
2023-03-12T16:44:42.877Z,8.23
2023-03-12T16:47:12.628Z,8.40
2023-03-12T16:49:39.817Z,7.60
2023-03-12T16:52:22.208Z,7.20
2023-03-12T16:54:49.879Z,7.90
2023-03-12T16:57:26.849Z,7.93
2023-03-12T16:59:54.071Z,7.87
2023-03-12T17:02:21.292Z,7.17
2023-03-12T17:04:49.134Z,6.73
2023-03-12T17:07:16.007Z,7.93
2023-03-12T17:09:43.052Z,6.40
2023-03-12T17:12:24.641Z,6.17
2023-03-12T17:14:51.720Z,5.80
2023-03-12T17:17:18.688Z,6.63
2023-03-12T17:19:45.766Z,9.10
2023-03-12T17:22:12.407Z,6.50
2023-03-12T17:24:40.075Z,5.97
2023-03-12T17:27:07.151Z,7.63
2023-03-12T17:29:33.797Z,6.07
2023-03-12T17:32:00.893Z,8.00
2023-03-12T17:34:28.588Z,6.90
2023-03-12T17:36:55.330Z,6.70
2023-03-12T17:39:23.875Z,7.30
2023-03-12T17:41:50.657Z,5.80
2023-03-12T17:44:17.691Z,6.97
2023-03-12T17:46:58.524Z,6.83
2023-03-12T17:49:25.693Z,7.17
2023-03-12T17:51:52.275Z,6.13
2023-03-12T17:54:18.936Z,7.15
2023-03-12T17:56:45.540Z,7.10
2023-03-12T17:59:12.148Z,6.53
2023-03-12T18:01:38.764Z,5.87
2023-03-12T18:04:05.507Z,6.20
2023-03-12T18:06:32.162Z,6.40
2023-03-12T18:08:59.174Z,6.30
2023-03-12T18:11:25.863Z,6.43
2023-03-12T18:13:52.523Z,7.47
2023-03-12T18:16:19.167Z,6.10
2023-03-12T18:18:45.785Z,6.47
2023-03-12T18:21:12.365Z,7.47
2023-03-12T18:23:38.978Z,6.47
2023-03-12T18:26:05.735Z,5.40
2023-03-12T18:28:32.444Z,5.77
2023-03-12T18:30:59.147Z,5.93
2023-03-12T18:33:26.280Z,5.87
2023-03-12T18:35:54.664Z,5.63
2023-03-12T18:38:21.804Z,6.03
2023-03-12T18:40:49.839Z,5.63
2023-03-12T18:43:16.587Z,5.47
2023-03-12T18:45:44.222Z,5.43
2023-03-12T18:48:11.145Z,6.17
2023-03-12T18:50:37.713Z,6.77
2023-03-12T18:53:04.402Z,4.77
2023-03-12T18:55:32.064Z,5.70
2023-03-12T18:57:58.756Z,5.27
2023-03-12T19:00:25.396Z,5.47
2023-03-12T19:02:52.466Z,6.67
2023-03-12T19:05:19.223Z,5.67
2023-03-12T19:07:45.849Z,5.13
2023-03-12T19:10:13.551Z,6.10
2023-03-12T19:12:51.752Z,5.77
2023-03-12T19:15:21.138Z,4.83
2023-03-12T19:17:48.179Z,6.47
2023-03-12T19:20:15.532Z,5.80
2023-03-12T19:22:42.161Z,5.43
2023-03-12T19:25:09.348Z,5.87
2023-03-12T19:27:35.977Z,5.70
2023-03-12T19:30:02.578Z,5.20
2023-03-12T19:32:42.057Z,6.87
2023-03-12T19:35:11.297Z,5.40
2023-03-12T19:37:37.937Z,5.33
2023-03-12T19:40:07.991Z,4.80
2023-03-12T19:42:34.586Z,5.53
2023-03-12T19:45:01.245Z,6.33
2023-03-12T19:47:28.069Z,4.90
2023-03-12T19:49:54.677Z,5.87
2023-03-12T19:52:21.507Z,5.33
2023-03-12T19:55:01.493Z,5.67
2023-03-12T19:57:30.330Z,4.90
2023-03-12T19:59:57.009Z,5.07
2023-03-12T20:02:23.693Z,4.97
2023-03-12T20:04:50.936Z,5.13
2023-03-12T20:07:18.356Z,4.70
2023-03-12T20:09:44.973Z,4.87
2023-03-12T20:12:11.699Z,5.33
2023-03-12T20:14:39.064Z,5.47
2023-03-12T20:17:06.808Z,4.60
2023-03-12T20:19:33.696Z,4.77
2023-03-12T20:22:00.355Z,4.97
2023-03-12T20:24:26.978Z,5.70
2023-03-12T20:26:53.579Z,5.17
2023-03-12T20:29:20.226Z,5.33
2023-03-12T20:31:47.039Z,5.27
2023-03-12T20:34:13.834Z,3.53
2023-03-12T20:36:40.513Z,4.30
2023-03-12T20:39:07.145Z,4.60
2023-03-12T20:41:34.173Z,3.63
2023-03-12T20:44:01.430Z,4.50
2023-03-12T20:46:28.316Z,4.17
2023-03-12T20:48:56.768Z,4.80
2023-03-12T20:51:24.794Z,4.03
2023-03-12T20:53:51.866Z,4.20
2023-03-12T20:56:18.446Z,3.57
2023-03-12T20:58:45.044Z,4.90
2023-03-12T21:01:11.768Z,4.47
2023-03-12T21:03:38.511Z,5.10
2023-03-12T21:06:05.452Z,4.00
2023-03-12T21:08:32.877Z,4.57
2023-03-12T21:10:59.855Z,5.33
2023-03-12T21:13:26.712Z,4.17
2023-03-12T21:15:53.380Z,3.87
2023-03-12T21:18:20.329Z,4.67
2023-03-12T21:20:47.169Z,4.53
2023-03-12T21:23:14.173Z,4.57
2023-03-12T21:25:42.057Z,4.07
2023-03-12T21:28:09.982Z,5.57
2023-03-12T21:30:37.281Z,5.37
2023-03-12T21:33:04.331Z,4.57
2023-03-12T21:35:31.072Z,4.93
2023-03-12T21:37:57.701Z,4.13
2023-03-12T21:40:24.883Z,3.83
2023-03-12T21:42:51.525Z,5.40
2023-03-12T21:45:18.248Z,4.43
2023-03-12T21:47:45.297Z,4.07
2023-03-12T21:50:12.055Z,4.33
2023-03-12T21:52:43.116Z,3.50
2023-03-12T21:55:10.355Z,4.63
2023-03-12T21:57:37.012Z,4.10
2023-03-12T22:00:04.966Z,4.13
2023-03-12T22:02:31.709Z,4.20
2023-03-12T22:05:01.248Z,4.13
2023-03-12T22:07:30.727Z,5.37
2023-03-12T22:09:57.330Z,4.60
2023-03-12T22:12:24.162Z,3.57
2023-03-12T22:14:50.770Z,4.30
2023-03-12T22:17:17.592Z,3.37
2023-03-12T22:19:44.300Z,4.90
2023-03-12T22:22:11.662Z,3.60
2023-03-12T22:24:38.317Z,3.90
2023-03-12T22:27:07.296Z,4.67
2023-03-12T22:29:34.755Z,4.20
2023-03-12T22:32:01.925Z,4.10
2023-03-12T22:34:29.704Z,4.73
2023-03-12T22:36:56.378Z,4.13
2023-03-12T22:39:23.106Z,3.50
2023-03-12T22:41:53.521Z,4.87
2023-03-12T22:44:20.347Z,3.87
2023-03-12T22:46:46.971Z,3.77
2023-03-12T22:49:15.042Z,4.13
2023-03-12T22:51:41.852Z,4.37
2023-03-12T22:54:08.468Z,4.40
2023-03-12T22:56:35.148Z,4.07
2023-03-12T22:59:01.905Z,4.60
2023-03-12T23:01:28.645Z,4.27
2023-03-12T23:03:55.268Z,4.17
2023-03-12T23:06:24.728Z,4.77
2023-03-12T23:08:52.415Z,4.13
2023-03-12T23:11:20.660Z,3.80
2023-03-12T23:13:49.161Z,4.10
2023-03-12T23:16:18.831Z,3.60
2023-03-12T23:18:45.817Z,5.33
2023-03-12T23:21:18.777Z,4.30
2023-03-12T23:23:46.136Z,4.17
2023-03-12T23:26:16.700Z,4.97
2023-03-12T23:28:43.560Z,5.07
2023-03-12T23:31:10.723Z,3.90
2023-03-12T23:33:37.704Z,3.87
2023-03-12T23:36:10.678Z,3.87
2023-03-12T23:38:37.738Z,3.50
2023-03-12T23:41:11.956Z,5.00
2023-03-12T23:43:38.853Z,4.97
2023-03-12T23:46:07.283Z,3.60
2023-03-12T23:48:35.726Z,3.87
2023-03-12T23:51:19.835Z,4.47
2023-03-12T23:53:48.980Z,3.77
2023-03-12T23:56:18.859Z,4.57
2023-03-12T23:58:46.257Z,4.27
